createdAt,value
2022-08-18T00:01:31.027Z,64.33
2022-08-18T00:06:31.441Z,64.61
2022-08-18T00:11:40.828Z,65.02
2022-08-18T00:16:32.529Z,64.91
2022-08-18T00:21:32.881Z,64.82
2022-08-18T00:26:36.746Z,65.12
2022-08-18T00:31:34.260Z,65.14
2022-08-18T00:36:34.982Z,65.37
2022-08-18T00:41:35.609Z,65.52
2022-08-18T00:46:38.909Z,65.49
2022-08-18T00:51:44.355Z,65.60
2022-08-18T00:56:40.438Z,65.91
2022-08-18T01:01:41.069Z,66.00
2022-08-18T01:06:41.672Z,66.29
2022-08-18T01:11:42.714Z,66.51
2022-08-18T01:16:53.160Z,66.72
2022-08-18T01:21:43.622Z,66.90
2022-08-18T01:26:45.645Z,67.02
2022-08-18T01:31:54.311Z,67.15
2022-08-18T01:36:48.345Z,67.40
2022-08-18T01:41:49.137Z,67.62
2022-08-18T01:46:49.701Z,67.60
2022-08-18T01:51:50.447Z,67.72
2022-08-18T01:56:51.205Z,67.94
2022-08-18T02:01:53.217Z,67.94
2022-08-18T02:06:52.509Z,68.05
2022-08-18T02:11:53.241Z,68.15
2022-08-18T02:17:01.059Z,68.36
2022-08-18T02:21:57.280Z,68.53
2022-08-18T02:26:58.126Z,68.68
2022-08-18T02:31:58.764Z,68.77
2022-08-18T02:36:59.502Z,68.70
2022-08-18T02:41:59.960Z,68.76
2022-08-18T02:52:01.389Z,68.80
2022-08-18T02:57:02.154Z,68.89
2022-08-18T03:02:05.189Z,0
2022-08-18T03:07:05.823Z,69.07
2022-08-18T03:12:06.824Z,69.29
2022-08-18T03:17:07.058Z,69.47
2022-08-18T03:22:08.316Z,69.59
2022-08-18T03:27:08.293Z,69.66
2022-08-18T03:32:09.014Z,69.79
2022-08-18T03:37:09.624Z,69.86
2022-08-18T03:42:10.301Z,69.95
2022-08-18T03:47:10.945Z,70.09
2022-08-18T03:52:14.564Z,70.20
2022-08-18T03:57:15.097Z,70.28
2022-08-18T04:02:15.953Z,70.44
2022-08-18T04:07:16.559Z,70.53
2022-08-18T04:12:17.550Z,70.59
2022-08-18T04:16:42.673Z,70.76
2022-08-18T04:21:37.463Z,70.95
2022-08-18T04:26:39.118Z,71.05
2022-08-18T04:31:37.174Z,71.04
2022-08-18T04:36:36.705Z,71.07
2022-08-18T04:41:37.372Z,71.16
2022-08-18T04:46:38.226Z,71.31
2022-08-18T04:52:22.165Z,71.46
2022-08-18T04:56:39.787Z,71.57
2022-08-18T05:06:39.030Z,71.53
2022-08-18T05:11:38.659Z,71.42
2022-08-18T05:16:45.929Z,71.25
2022-08-18T05:21:40.056Z,70.91
2022-08-18T05:26:40.578Z,70.57
2022-08-18T05:31:44.119Z,70.31
2022-08-18T05:36:44.795Z,70.06
2022-08-18T05:41:45.376Z,69.52
2022-08-18T05:46:46.012Z,69.04
2022-08-18T05:51:46.858Z,68.87
2022-08-18T05:56:47.574Z,68.70
2022-08-18T06:01:48.235Z,68.88
2022-08-18T06:06:48.955Z,68.90
2022-08-18T06:12:05.085Z,68.67
2022-08-18T06:16:50.270Z,68.75
2022-08-18T06:21:51.066Z,69.13
2022-08-18T06:31:54.882Z,70.09
2022-08-18T06:36:55.998Z,70.44
2022-08-18T06:41:42.628Z,70.45
2022-08-18T06:46:38.778Z,70.70
2022-08-18T06:51:40.769Z,70.87
2022-08-18T06:56:39.073Z,70.89
2022-08-18T07:21:36.718Z,70.88
2022-08-18T07:31:38.151Z,70.84
2022-08-18T07:36:38.381Z,70.84
2022-08-18T07:41:44.895Z,70.52
2022-08-18T07:46:40.006Z,70.44
2022-08-18T07:51:42.027Z,69.97
2022-08-18T07:56:59.476Z,69.76
2022-08-18T08:01:42.226Z,69.76
2022-08-18T08:07:06.397Z,69.74
2022-08-18T08:11:45.811Z,69.69
2022-08-18T08:16:46.789Z,69.52
2022-08-18T08:21:52.773Z,69.30
2022-08-18T08:36:51.163Z,68.99
2022-08-18T08:41:52.876Z,68.72
2022-08-18T08:46:53.532Z,67.81
2022-08-18T08:51:54.304Z,67.11
2022-08-18T08:57:12.951Z,67.15
2022-08-18T09:01:56.736Z,66.86
2022-08-18T09:06:59.879Z,64.73
2022-08-18T09:11:56.679Z,65.08
2022-08-18T09:16:57.270Z,65.42
2022-08-18T09:22:01.305Z,66.31
2022-08-18T09:27:01.665Z,66.15
2022-08-18T09:32:24.024Z,66.07
2022-08-18T09:37:02.467Z,64.71
2022-08-18T09:42:03.164Z,63.43
2022-08-18T09:47:04.010Z,63.38
2022-08-18T09:52:04.140Z,63.01
2022-08-18T09:57:09.226Z,60.64
2022-08-18T10:02:14.280Z,60.49
2022-08-18T10:07:08.610Z,60.29
2022-08-18T10:12:18.814Z,59.90
2022-08-18T10:22:10.795Z,58.83
2022-08-18T10:27:11.226Z,58.98
2022-08-18T10:36:38.001Z,58.28
2022-08-18T10:41:37.529Z,56.79
2022-08-18T10:46:39.694Z,57.48
2022-08-18T10:52:00.240Z,57.27
2022-08-18T10:56:39.353Z,56.87
2022-08-18T11:01:42.790Z,56.24
2022-08-18T11:06:43.980Z,56.03
2022-08-18T11:11:52.658Z,55.37
2022-08-18T11:16:45.996Z,55.34
2022-08-18T11:21:45.463Z,53.70
2022-08-18T11:26:52.700Z,53.88
2022-08-18T11:31:52.519Z,53.77
2022-08-18T11:36:54.536Z,53.27
2022-08-18T11:41:51.065Z,52.78
2022-08-18T11:46:56.958Z,52.40
2022-08-18T11:51:52.222Z,51.93
2022-08-18T11:56:53.444Z,52.51
2022-08-18T12:01:57.743Z,52.45
2022-08-18T12:06:56.588Z,52.06
2022-08-18T12:12:01.839Z,52.29
2022-08-18T12:17:07.919Z,52.11
2022-08-18T12:27:12.339Z,52.00
2022-08-18T12:37:10.368Z,51.23
2022-08-18T12:42:06.959Z,51.28
2022-08-18T12:47:07.830Z,50.65
2022-08-18T12:52:07.845Z,51.17
2022-08-18T12:57:11.004Z,50.62
2022-08-18T13:02:17.374Z,50.46
2022-08-18T13:07:17.085Z,49.97
2022-08-18T13:12:15.087Z,49.84
2022-08-18T13:17:29.566Z,50.38
2022-08-18T13:22:19.034Z,49.70
2022-08-18T13:27:18.382Z,48.65
2022-08-18T13:37:20.418Z,48.27
2022-08-18T13:42:26.936Z,49.21
2022-08-18T13:47:27.955Z,48.73
2022-08-18T13:52:33.712Z,49.23
2022-08-18T13:57:25.219Z,47.90
2022-08-18T14:07:43.263Z,48.70
2022-08-18T14:12:33.473Z,47.11
2022-08-18T14:17:27.403Z,47.69
2022-08-18T14:22:36.048Z,48.31
2022-08-18T14:27:34.850Z,47.74
2022-08-18T14:32:30.747Z,48.12
2022-08-18T14:42:40.953Z,0
2022-08-18T14:47:45.801Z,48.57
2022-08-18T14:52:46.073Z,46.63
2022-08-18T14:57:45.260Z,46.58
2022-08-18T15:02:52.056Z,46.61
2022-08-18T15:07:46.090Z,45.80
2022-08-18T15:12:46.473Z,46.21
2022-08-18T15:17:52.567Z,47.17
2022-08-18T15:27:52.219Z,47.19
2022-08-18T15:33:18.589Z,47.13
2022-08-18T15:41:37.776Z,46.90
2022-08-18T15:46:36.822Z,46.54
2022-08-18T15:51:41.080Z,46.50
2022-08-18T15:56:38.052Z,47.83
2022-08-18T16:01:41.950Z,48.13
2022-08-18T16:06:41.920Z,48.64
2022-08-18T16:11:42.845Z,48.10
2022-08-18T16:16:43.336Z,48.49
2022-08-18T16:21:48.884Z,53.45
2022-08-18T16:26:44.484Z,57.31
2022-08-18T16:31:47.939Z,58.58
2022-08-18T16:36:48.543Z,60.40
2022-08-18T16:41:49.168Z,62.70
2022-08-18T16:46:49.793Z,64.24
2022-08-18T16:51:50.409Z,64.97
2022-08-18T16:56:53.772Z,66.14
2022-08-18T17:01:54.474Z,66.68
2022-08-18T17:06:55.026Z,67.04
2022-08-18T17:11:55.672Z,67.70
2022-08-18T17:16:56.404Z,68.01
2022-08-18T17:21:57.000Z,68.85
2022-08-18T17:27:00.162Z,69.63
2022-08-18T17:32:00.833Z,70.51
2022-08-18T17:37:01.667Z,71.10
2022-08-18T17:42:02.412Z,71.66
2022-08-18T17:47:03.121Z,71.86
2022-08-18T17:52:03.707Z,72.23
2022-08-18T17:57:07.017Z,72.47
2022-08-18T18:02:07.662Z,73.16
2022-08-18T18:07:08.453Z,73.07
2022-08-18T18:12:08.930Z,73.34
2022-08-18T18:17:20.620Z,73.69
2022-08-18T21:08:53.258Z,78.18
2022-08-18T21:16:40.802Z,78.47
2022-08-18T21:21:35.543Z,78.89
2022-08-18T21:36:46.931Z,79.21
2022-08-18T21:41:41.241Z,79.41
2022-08-18T22:03:34.360Z,79.50
2022-08-18T22:07:22.079Z,79.41
2022-08-18T22:11:44.220Z,79.36
2022-08-18T22:16:39.777Z,79.34
2022-08-18T22:21:41.115Z,79.05
2022-08-18T22:26:43.620Z,79.43
2022-08-18T22:31:43.734Z,79.75
2022-08-18T22:36:55.182Z,79.47
2022-08-18T22:41:43.433Z,79.43
2022-08-18T22:47:00.239Z,79.43
2022-08-18T22:51:55.500Z,79.47
2022-08-18T22:57:09.429Z,79.50
2022-08-18T23:01:57.470Z,79.65
2022-08-18T23:06:59.806Z,79.98
2022-08-18T23:12:26.945Z,79.94
2022-08-18T23:17:02.797Z,79.84
2022-08-18T23:21:57.428Z,79.86
2022-08-18T23:27:06.268Z,79.82
2022-08-18T23:31:56.178Z,79.85
2022-08-18T23:36:59.645Z,79.82
2022-08-18T23:42:12.576Z,79.96
2022-08-18T23:47:56.340Z,80.01
2022-08-18T23:52:02.857Z,80.01
2022-08-18T23:57:38.711Z,80.10
